sensor_id;sensor_type;location;lat;lon;timestamp;P1;durP1;ratioP1;P2;durP2;ratioP2
3359;SDS011;1693;49.602;11.046;2023-09-19T00:00:33;16.33;;;5.87;;
3359;SDS011;1693;49.602;11.046;2023-09-19T00:03:01;8.33;;;4.90;;
3359;SDS011;1693;49.602;11.046;2023-09-19T00:05:33;6.13;;;4.40;;
3359;SDS011;1693;49.602;11.046;2023-09-19T00:08:01;7.73;;;4.83;;
3359;SDS011;1693;49.602;11.046;2023-09-19T00:10:29;12.20;;;5.50;;
3359;SDS011;1693;49.602;11.046;2023-09-19T00:12:57;9.03;;;5.83;;
3359;SDS011;1693;49.602;11.046;2023-09-19T00:15:25;17.63;;;5.07;;
3359;SDS011;1693;49.602;11.046;2023-09-19T00:17:53;7.50;;;5.30;;
3359;SDS011;1693;49.602;11.046;2023-09-19T00:20:20;7.60;;;4.87;;
3359;SDS011;1693;49.602;11.046;2023-09-19T00:22:49;10.13;;;5.03;;
3359;SDS011;1693;49.602;11.046;2023-09-19T00:25:18;15.50;;;6.37;;
3359;SDS011;1693;49.602;11.046;2023-09-19T00:27:46;10.63;;;5.27;;
3359;SDS011;1693;49.602;11.046;2023-09-19T00:30:16;8.43;;;5.73;;
3359;SDS011;1693;49.602;11.046;2023-09-19T00:32:46;12.93;;;7.40;;
3359;SDS011;1693;49.602;11.046;2023-09-19T00:35:14;9.27;;;5.60;;
3359;SDS011;1693;49.602;11.046;2023-09-19T00:37:41;9.37;;;5.77;;
3359;SDS011;1693;49.602;11.046;2023-09-19T00:40:10;12.33;;;6.00;;
3359;SDS011;1693;49.602;11.046;2023-09-19T00:42:38;15.10;;;9.83;;
3359;SDS011;1693;49.602;11.046;2023-09-19T00:45:06;8.23;;;5.27;;
3359;SDS011;1693;49.602;11.046;2023-09-19T00:47:36;10.20;;;5.53;;
3359;SDS011;1693;49.602;11.046;2023-09-19T00:50:04;8.87;;;4.70;;
3359;SDS011;1693;49.602;11.046;2023-09-19T00:52:33;11.83;;;5.47;;
3359;SDS011;1693;49.602;11.046;2023-09-19T00:55:02;9.00;;;5.20;;
3359;SDS011;1693;49.602;11.046;2023-09-19T00:57:32;9.20;;;5.60;;
3359;SDS011;1693;49.602;11.046;2023-09-19T01:00:00;9.77;;;4.93;;
3359;SDS011;1693;49.602;11.046;2023-09-19T01:02:31;7.00;;;5.23;;
3359;SDS011;1693;49.602;11.046;2023-09-19T01:04:58;8.00;;;5.97;;
3359;SDS011;1693;49.602;11.046;2023-09-19T01:07:25;13.17;;;5.90;;
3359;SDS011;1693;49.602;11.046;2023-09-19T01:09:55;9.43;;;4.83;;
3359;SDS011;1693;49.602;11.046;2023-09-19T01:12:28;7.20;;;5.60;;
3359;SDS011;1693;49.602;11.046;2023-09-19T01:15:08;8.43;;;5.23;;
3359;SDS011;1693;49.602;11.046;2023-09-19T01:17:45;11.03;;;5.13;;
3359;SDS011;1693;49.602;11.046;2023-09-19T01:20:21;11.30;;;6.53;;
3359;SDS011;1693;49.602;11.046;2023-09-19T01:23:05;11.30;;;5.27;;
3359;SDS011;1693;49.602;11.046;2023-09-19T01:28:45;8.20;;;5.47;;
3359;SDS011;1693;49.602;11.046;2023-09-19T01:31:25;9.43;;;5.80;;
3359;SDS011;1693;49.602;11.046;2023-09-19T01:33:59;19.47;;;4.97;;
3359;SDS011;1693;49.602;11.046;2023-09-19T01:36:30;10.40;;;6.37;;
3359;SDS011;1693;49.602;11.046;2023-09-19T01:39:00;7.40;;;5.23;;
3359;SDS011;1693;49.602;11.046;2023-09-19T01:41:38;5.90;;;5.30;;
3359;SDS011;1693;49.602;11.046;2023-09-19T01:44:19;10.90;;;5.97;;
3359;SDS011;1693;49.602;11.046;2023-09-19T01:46:56;5.80;;;4.50;;
3359;SDS011;1693;49.602;11.046;2023-09-19T01:49:33;17.77;;;5.63;;
3359;SDS011;1693;49.602;11.046;2023-09-19T01:52:11;8.40;;;5.13;;
3359;SDS011;1693;49.602;11.046;2023-09-19T01:54:42;6.10;;;4.53;;
3359;SDS011;1693;49.602;11.046;2023-09-19T01:57:17;6.07;;;4.63;;
3359;SDS011;1693;49.602;11.046;2023-09-19T01:59:57;8.20;;;4.73;;
3359;SDS011;1693;49.602;11.046;2023-09-19T02:02:33;7.10;;;5.90;;
3359;SDS011;1693;49.602;11.046;2023-09-19T02:05:03;10.00;;;5.20;;
3359;SDS011;1693;49.602;11.046;2023-09-19T02:07:31;9.80;;;6.17;;
3359;SDS011;1693;49.602;11.046;2023-09-19T02:09:59;10.10;;;4.60;;
3359;SDS011;1693;49.602;11.046;2023-09-19T02:12:26;6.33;;;4.60;;
3359;SDS011;1693;49.602;11.046;2023-09-19T02:14:53;9.83;;;5.40;;
3359;SDS011;1693;49.602;11.046;2023-09-19T02:17:21;7.87;;;5.50;;
3359;SDS011;1693;49.602;11.046;2023-09-19T02:19:53;11.17;;;5.47;;
3359;SDS011;1693;49.602;11.046;2023-09-19T02:22:23;10.40;;;4.70;;
3359;SDS011;1693;49.602;11.046;2023-09-19T02:24:51;8.47;;;5.40;;
3359;SDS011;1693;49.602;11.046;2023-09-19T02:27:18;10.90;;;5.80;;
3359;SDS011;1693;49.602;11.046;2023-09-19T02:29:46;7.40;;;5.27;;
3359;SDS011;1693;49.602;11.046;2023-09-19T02:32:13;14.10;;;5.37;;
3359;SDS011;1693;49.602;11.046;2023-09-19T02:34:40;14.20;;;6.00;;
3359;SDS011;1693;49.602;11.046;2023-09-19T02:37:12;13.77;;;5.83;;
3359;SDS011;1693;49.602;11.046;2023-09-19T02:39:41;10.00;;;5.17;;
3359;SDS011;1693;49.602;11.046;2023-09-19T02:42:08;17.83;;;5.77;;
3359;SDS011;1693;49.602;11.046;2023-09-19T02:44:38;6.83;;;4.93;;
3359;SDS011;1693;49.602;11.046;2023-09-19T02:47:05;6.50;;;5.90;;
3359;SDS011;1693;49.602;11.046;2023-09-19T02:49:35;8.60;;;4.63;;
3359;SDS011;1693;49.602;11.046;2023-09-19T02:52:03;6.40;;;4.53;;
3359;SDS011;1693;49.602;11.046;2023-09-19T02:54:34;7.33;;;5.10;;
3359;SDS011;1693;49.602;11.046;2023-09-19T02:57:02;5.57;;;4.57;;
3359;SDS011;1693;49.602;11.046;2023-09-19T02:59:31;7.40;;;3.70;;
3359;SDS011;1693;49.602;11.046;2023-09-19T03:01:59;6.47;;;4.23;;
3359;SDS011;1693;49.602;11.046;2023-09-19T03:04:28;5.53;;;3.97;;
3359;SDS011;1693;49.602;11.046;2023-09-19T03:06:56;18.27;;;5.30;;
3359;SDS011;1693;49.602;11.046;2023-09-19T03:09:26;6.07;;;3.90;;
3359;SDS011;1693;49.602;11.046;2023-09-19T03:11:54;9.80;;;4.30;;
3359;SDS011;1693;49.602;11.046;2023-09-19T03:14:21;10.17;;;4.07;;
3359;SDS011;1693;49.602;11.046;2023-09-19T03:16:49;5.40;;;3.90;;
3359;SDS011;1693;49.602;11.046;2023-09-19T03:19:17;4.57;;;4.07;;
3359;SDS011;1693;49.602;11.046;2023-09-19T03:21:51;6.87;;;4.03;;
3359;SDS011;1693;49.602;11.046;2023-09-19T03:24:18;8.10;;;4.90;;
3359;SDS011;1693;49.602;11.046;2023-09-19T03:26:45;8.07;;;4.17;;
3359;SDS011;1693;49.602;11.046;2023-09-19T03:29:14;5.37;;;3.23;;
3359;SDS011;1693;49.602;11.046;2023-09-19T03:31:42;7.13;;;3.00;;
3359;SDS011;1693;49.602;11.046;2023-09-19T03:34:09;10.30;;;3.90;;
3359;SDS011;1693;49.602;11.046;2023-09-19T03:36:36;9.03;;;4.30;;
3359;SDS011;1693;49.602;11.046;2023-09-19T03:39:05;4.50;;;3.30;;
3359;SDS011;1693;49.602;11.046;2023-09-19T03:41:33;9.07;;;4.77;;
3359;SDS011;1693;49.602;11.046;2023-09-19T03:44:01;7.60;;;4.47;;
3359;SDS011;1693;49.602;11.046;2023-09-19T03:46:30;4.13;;;3.47;;
3359;SDS011;1693;49.602;11.046;2023-09-19T03:48:57;7.67;;;3.60;;
3359;SDS011;1693;49.602;11.046;2023-09-19T03:51:24;4.03;;;3.13;;
3359;SDS011;1693;49.602;11.046;2023-09-19T03:53:51;17.40;;;5.77;;
3359;SDS011;1693;49.602;11.046;2023-09-19T03:56:18;4.40;;;3.20;;
3359;SDS011;1693;49.602;11.046;2023-09-19T03:58:45;4.77;;;4.37;;
3359;SDS011;1693;49.602;11.046;2023-09-19T04:01:12;4.80;;;3.77;;
3359;SDS011;1693;49.602;11.046;2023-09-19T04:03:40;10.73;;;3.70;;
3359;SDS011;1693;49.602;11.046;2023-09-19T04:06:15;5.60;;;3.93;;
3359;SDS011;1693;49.602;11.046;2023-09-19T04:08:46;5.73;;;3.70;;
3359;SDS011;1693;49.602;11.046;2023-09-19T04:11:14;4.33;;;3.63;;
3359;SDS011;1693;49.602;11.046;2023-09-19T04:13:41;7.63;;;3.40;;
3359;SDS011;1693;49.602;11.046;2023-09-19T04:16:08;18.63;;;4.03;;
3359;SDS011;1693;49.602;11.046;2023-09-19T04:18:35;7.23;;;3.97;;
3359;SDS011;1693;49.602;11.046;2023-09-19T04:21:06;10.00;;;4.33;;
3359;SDS011;1693;49.602;11.046;2023-09-19T04:23:33;6.07;;;4.83;;
3359;SDS011;1693;49.602;11.046;2023-09-19T04:26:00;8.03;;;4.90;;
3359;SDS011;1693;49.602;11.046;2023-09-19T04:28:29;5.87;;;3.80;;
3359;SDS011;1693;49.602;11.046;2023-09-19T04:30:57;8.13;;;4.97;;
3359;SDS011;1693;49.602;11.046;2023-09-19T04:33:24;14.33;;;6.37;;
3359;SDS011;1693;49.602;11.046;2023-09-19T04:35:52;9.97;;;5.13;;
3359;SDS011;1693;49.602;11.046;2023-09-19T04:38:20;5.57;;;4.00;;
3359;SDS011;1693;49.602;11.046;2023-09-19T04:40:48;12.33;;;3.50;;
3359;SDS011;1693;49.602;11.046;2023-09-19T04:43:17;7.83;;;3.93;;
3359;SDS011;1693;49.602;11.046;2023-09-19T04:45:54;5.10;;;3.50;;
3359;SDS011;1693;49.602;11.046;2023-09-19T04:48:50;5.43;;;4.00;;
3359;SDS011;1693;49.602;11.046;2023-09-19T04:51:36;8.13;;;3.50;;
3359;SDS011;1693;49.602;11.046;2023-09-19T04:54:04;6.90;;;3.27;;
3359;SDS011;1693;49.602;11.046;2023-09-19T04:56:31;14.20;;;7.70;;
3359;SDS011;1693;49.602;11.046;2023-09-19T04:58:59;7.33;;;4.10;;
3359;SDS011;1693;49.602;11.046;2023-09-19T05:01:26;8.27;;;3.80;;
3359;SDS011;1693;49.602;11.046;2023-09-19T05:03:53;10.00;;;3.10;;
3359;SDS011;1693;49.602;11.046;2023-09-19T05:06:20;7.13;;;4.10;;
3359;SDS011;1693;49.602;11.046;2023-09-19T05:08:47;6.90;;;3.73;;
3359;SDS011;1693;49.602;11.046;2023-09-19T05:11:17;5.37;;;3.90;;
3359;SDS011;1693;49.602;11.046;2023-09-19T05:13:45;5.70;;;3.87;;
3359;SDS011;1693;49.602;11.046;2023-09-19T05:16:12;9.20;;;3.60;;
3359;SDS011;1693;49.602;11.046;2023-09-19T05:18:38;10.73;;;5.60;;
3359;SDS011;1693;49.602;11.046;2023-09-19T05:21:05;5.73;;;4.13;;
3359;SDS011;1693;49.602;11.046;2023-09-19T05:23:33;12.10;;;3.70;;
3359;SDS011;1693;49.602;11.046;2023-09-19T05:25:59;5.40;;;4.30;;
3359;SDS011;1693;49.602;11.046;2023-09-19T05:28:28;10.40;;;3.90;;
3359;SDS011;1693;49.602;11.046;2023-09-19T05:30:55;4.10;;;3.70;;
3359;SDS011;1693;49.602;11.046;2023-09-19T05:33:24;4.30;;;3.90;;
3359;SDS011;1693;49.602;11.046;2023-09-19T05:35:53;3.83;;;3.30;;
3359;SDS011;1693;49.602;11.046;2023-09-19T05:38:22;5.17;;;3.27;;
3359;SDS011;1693;49.602;11.046;2023-09-19T05:40:51;7.93;;;3.20;;
3359;SDS011;1693;49.602;11.046;2023-09-19T05:43:19;5.60;;;3.30;;
3359;SDS011;1693;49.602;11.046;2023-09-19T05:45:56;3.27;;;2.97;;
3359;SDS011;1693;49.602;11.046;2023-09-19T05:48:25;4.13;;;3.30;;
3359;SDS011;1693;49.602;11.046;2023-09-19T05:50:52;6.20;;;3.37;;
3359;SDS011;1693;49.602;11.046;2023-09-19T05:53:19;7.43;;;3.67;;
3359;SDS011;1693;49.602;11.046;2023-09-19T05:55:48;8.77;;;5.20;;
3359;SDS011;1693;49.602;11.046;2023-09-19T05:58:15;10.23;;;4.37;;
3359;SDS011;1693;49.602;11.046;2023-09-19T06:00:42;5.97;;;4.00;;
3359;SDS011;1693;49.602;11.046;2023-09-19T06:03:13;5.33;;;3.47;;
3359;SDS011;1693;49.602;11.046;2023-09-19T06:05:41;4.03;;;3.63;;
3359;SDS011;1693;49.602;11.046;2023-09-19T06:08:07;4.73;;;4.20;;
3359;SDS011;1693;49.602;11.046;2023-09-19T06:10:35;4.17;;;3.47;;
3359;SDS011;1693;49.602;11.046;2023-09-19T06:13:02;5.20;;;2.80;;
3359;SDS011;1693;49.602;11.046;2023-09-19T06:15:31;3.30;;;3.00;;
3359;SDS011;1693;49.602;11.046;2023-09-19T06:18:01;4.50;;;3.30;;
3359;SDS011;1693;49.602;11.046;2023-09-19T06:20:31;4.00;;;3.60;;
3359;SDS011;1693;49.602;11.046;2023-09-19T06:22:58;7.53;;;3.13;;
3359;SDS011;1693;49.602;11.046;2023-09-19T06:25:27;2.60;;;2.40;;
3359;SDS011;1693;49.602;11.046;2023-09-19T06:27:54;2.77;;;2.57;;
3359;SDS011;1693;49.602;11.046;2023-09-19T06:30:21;3.43;;;2.17;;
3359;SDS011;1693;49.602;11.046;2023-09-19T06:32:54;4.77;;;2.50;;
3359;SDS011;1693;49.602;11.046;2023-09-19T06:35:22;5.73;;;3.10;;
3359;SDS011;1693;49.602;11.046;2023-09-19T06:37:50;3.20;;;2.43;;
3359;SDS011;1693;49.602;11.046;2023-09-19T06:40:17;4.23;;;2.80;;
3359;SDS011;1693;49.602;11.046;2023-09-19T06:42:46;3.93;;;1.50;;
3359;SDS011;1693;49.602;11.046;2023-09-19T06:45:16;3.67;;;2.10;;
3359;SDS011;1693;49.602;11.046;2023-09-19T06:47:44;4.13;;;1.87;;
3359;SDS011;1693;49.602;11.046;2023-09-19T06:50:14;3.97;;;2.67;;
3359;SDS011;1693;49.602;11.046;2023-09-19T06:52:45;2.23;;;2.03;;
3359;SDS011;1693;49.602;11.046;2023-09-19T06:55:18;4.30;;;1.97;;
3359;SDS011;1693;49.602;11.046;2023-09-19T06:57:46;1.93;;;1.73;;
3359;SDS011;1693;49.602;11.046;2023-09-19T07:00:14;1.80;;;1.50;;
3359;SDS011;1693;49.602;11.046;2023-09-19T07:02:43;2.00;;;1.77;;
3359;SDS011;1693;49.602;11.046;2023-09-19T07:05:10;2.90;;;2.13;;
3359;SDS011;1693;49.602;11.046;2023-09-19T07:07:37;2.17;;;1.97;;
3359;SDS011;1693;49.602;11.046;2023-09-19T07:10:05;2.93;;;2.63;;
3359;SDS011;1693;49.602;11.046;2023-09-19T07:12:34;4.40;;;1.73;;
3359;SDS011;1693;49.602;11.046;2023-09-19T07:15:03;4.77;;;1.93;;
3359;SDS011;1693;49.602;11.046;2023-09-19T07:17:32;2.07;;;1.67;;
3359;SDS011;1693;49.602;11.046;2023-09-19T07:19:59;2.43;;;1.97;;
3359;SDS011;1693;49.602;11.046;2023-09-19T07:22:32;2.73;;;2.07;;
3359;SDS011;1693;49.602;11.046;2023-09-19T07:24:59;3.10;;;1.90;;
3359;SDS011;1693;49.602;11.046;2023-09-19T07:27:26;2.23;;;1.80;;
3359;SDS011;1693;49.602;11.046;2023-09-19T07:29:54;2.70;;;2.23;;
3359;SDS011;1693;49.602;11.046;2023-09-19T07:32:22;2.67;;;1.87;;
3359;SDS011;1693;49.602;11.046;2023-09-19T07:34:49;1.80;;;1.70;;
3359;SDS011;1693;49.602;11.046;2023-09-19T07:37:22;2.13;;;1.93;;
3359;SDS011;1693;49.602;11.046;2023-09-19T07:39:52;4.20;;;1.60;;
3359;SDS011;1693;49.602;11.046;2023-09-19T07:42:19;6.60;;;2.40;;
3359;SDS011;1693;49.602;11.046;2023-09-19T07:44:48;2.50;;;2.03;;
3359;SDS011;1693;49.602;11.046;2023-09-19T07:47:24;3.87;;;1.77;;
3359;SDS011;1693;49.602;11.046;2023-09-19T07:49:53;2.40;;;2.03;;
3359;SDS011;1693;49.602;11.046;2023-09-19T07:52:22;3.83;;;1.83;;
3359;SDS011;1693;49.602;11.046;2023-09-19T07:54:49;3.70;;;2.30;;
3359;SDS011;1693;49.602;11.046;2023-09-19T07:57:16;2.17;;;1.77;;
3359;SDS011;1693;49.602;11.046;2023-09-19T07:59:45;1.70;;;1.50;;
3359;SDS011;1693;49.602;11.046;2023-09-19T08:02:12;2.40;;;1.83;;
3359;SDS011;1693;49.602;11.046;2023-09-19T08:04:42;5.40;;;2.20;;
3359;SDS011;1693;49.602;11.046;2023-09-19T08:07:13;3.53;;;1.80;;
3359;SDS011;1693;49.602;11.046;2023-09-19T08:09:40;3.40;;;2.20;;
3359;SDS011;1693;49.602;11.046;2023-09-19T08:12:15;4.33;;;2.03;;
3359;SDS011;1693;49.602;11.046;2023-09-19T08:14:47;2.60;;;2.13;;
3359;SDS011;1693;49.602;11.046;2023-09-19T08:17:15;2.63;;;1.37;;
3359;SDS011;1693;49.602;11.046;2023-09-19T08:19:51;4.13;;;1.70;;
3359;SDS011;1693;49.602;11.046;2023-09-19T08:22:22;5.60;;;1.63;;
3359;SDS011;1693;49.602;11.046;2023-09-19T08:24:49;3.33;;;1.67;;
3359;SDS011;1693;49.602;11.046;2023-09-19T08:27:17;3.87;;;1.67;;
3359;SDS011;1693;49.602;11.046;2023-09-19T08:29:47;4.70;;;1.50;;
3359;SDS011;1693;49.602;11.046;2023-09-19T08:32:16;2.57;;;1.70;;
3359;SDS011;1693;49.602;11.046;2023-09-19T08:34:46;6.00;;;1.70;;
3359;SDS011;1693;49.602;11.046;2023-09-19T08:37:15;5.50;;;2.43;;
3359;SDS011;1693;49.602;11.046;2023-09-19T08:39:43;3.30;;;1.60;;
3359;SDS011;1693;49.602;11.046;2023-09-19T08:42:10;1.83;;;1.40;;
3359;SDS011;1693;49.602;11.046;2023-09-19T08:44:38;2.60;;;1.30;;
3359;SDS011;1693;49.602;11.046;2023-09-19T08:47:08;2.37;;;1.30;;
3359;SDS011;1693;49.602;11.046;2023-09-19T08:49:38;1.87;;;1.07;;
3359;SDS011;1693;49.602;11.046;2023-09-19T08:52:16;2.73;;;1.37;;
3359;SDS011;1693;49.602;11.046;2023-09-19T08:54:52;4.10;;;2.10;;
3359;SDS011;1693;49.602;11.046;2023-09-19T08:57:22;2.17;;;1.47;;
3359;SDS011;1693;49.602;11.046;2023-09-19T08:59:49;2.50;;;2.27;;
3359;SDS011;1693;49.602;11.046;2023-09-19T09:02:17;3.10;;;1.37;;
3359;SDS011;1693;49.602;11.046;2023-09-19T09:04:45;2.60;;;1.33;;
3359;SDS011;1693;49.602;11.046;2023-09-19T09:07:13;3.97;;;1.30;;
3359;SDS011;1693;49.602;11.046;2023-09-19T09:09:43;6.20;;;1.90;;
3359;SDS011;1693;49.602;11.046;2023-09-19T09:12:13;2.00;;;1.50;;
3359;SDS011;1693;49.602;11.046;2023-09-19T09:15:11;1.80;;;1.50;;
3359;SDS011;1693;49.602;11.046;2023-09-19T09:17:50;2.20;;;1.23;;
3359;SDS011;1693;49.602;11.046;2023-09-19T09:20:18;1.23;;;1.00;;
3359;SDS011;1693;49.602;11.046;2023-09-19T09:22:52;2.10;;;1.20;;
3359;SDS011;1693;49.602;11.046;2023-09-19T09:25:21;2.90;;;1.73;;
3359;SDS011;1693;49.602;11.046;2023-09-19T09:27:58;2.57;;;1.33;;
3359;SDS011;1693;49.602;11.046;2023-09-19T09:30:32;2.70;;;1.67;;
3359;SDS011;1693;49.602;11.046;2023-09-19T09:33:09;4.50;;;1.33;;
3359;SDS011;1693;49.602;11.046;2023-09-19T09:35:37;3.00;;;1.87;;
3359;SDS011;1693;49.602;11.046;2023-09-19T09:38:07;2.00;;;1.10;;
3359;SDS011;1693;49.602;11.046;2023-09-19T09:40:47;2.77;;;1.50;;
3359;SDS011;1693;49.602;11.046;2023-09-19T09:43:27;3.00;;;1.40;;
3359;SDS011;1693;49.602;11.046;2023-09-19T09:48:55;2.30;;;1.10;;
3359;SDS011;1693;49.602;11.046;2023-09-19T09:51:50;4.50;;;1.20;;
3359;SDS011;1693;49.602;11.046;2023-09-19T09:54:24;3.58;;;1.30;;
3359;SDS011;1693;49.602;11.046;2023-09-19T09:56:56;3.80;;;1.50;;
3359;SDS011;1693;49.602;11.046;2023-09-19T10:02:12;2.13;;;1.20;;
3359;SDS011;1693;49.602;11.046;2023-09-19T10:04:40;1.98;;;1.45;;
3359;SDS011;1693;49.602;11.046;2023-09-19T10:07:27;2.13;;;1.30;;
3359;SDS011;1693;49.602;11.046;2023-09-19T10:09:58;5.07;;;1.30;;
3359;SDS011;1693;49.602;11.046;2023-09-19T10:12:35;4.43;;;1.40;;
3359;SDS011;1693;49.602;11.046;2023-09-19T10:15:15;1.50;;;1.30;;
3359;SDS011;1693;49.602;11.046;2023-09-19T10:17:46;2.78;;;1.75;;
3359;SDS011;1693;49.602;11.046;2023-09-19T10:20:14;2.80;;;1.23;;
3359;SDS011;1693;49.602;11.046;2023-09-19T10:23:05;2.83;;;1.80;;
3359;SDS011;1693;49.602;11.046;2023-09-19T10:25:38;1.83;;;1.30;;
3359;SDS011;1693;49.602;11.046;2023-09-19T10:28:05;5.40;;;1.50;;
3359;SDS011;1693;49.602;11.046;2023-09-19T10:30:36;8.60;;;2.00;;
3359;SDS011;1693;49.602;11.046;2023-09-19T10:33:07;5.77;;;1.33;;
3359;SDS011;1693;49.602;11.046;2023-09-19T10:35:35;2.83;;;1.60;;
3359;SDS011;1693;49.602;11.046;2023-09-19T10:38:07;1.40;;;1.13;;
3359;SDS011;1693;49.602;11.046;2023-09-19T10:40:36;1.67;;;1.10;;
3359;SDS011;1693;49.602;11.046;2023-09-19T10:43:08;2.07;;;1.63;;
3359;SDS011;1693;49.602;11.046;2023-09-19T10:45:38;4.93;;;1.43;;
3359;SDS011;1693;49.602;11.046;2023-09-19T10:48:06;4.37;;;1.40;;
3359;SDS011;1693;49.602;11.046;2023-09-19T10:50:35;1.30;;;1.00;;
3359;SDS011;1693;49.602;11.046;2023-09-19T10:53:04;3.47;;;1.50;;
3359;SDS011;1693;49.602;11.046;2023-09-19T10:55:35;2.60;;;1.13;;
3359;SDS011;1693;49.602;11.046;2023-09-19T10:58:02;2.80;;;1.87;;
3359;SDS011;1693;49.602;11.046;2023-09-19T11:00:52;7.00;;;2.20;;
3359;SDS011;1693;49.602;11.046;2023-09-19T11:03:22;3.93;;;1.40;;
3359;SDS011;1693;49.602;11.046;2023-09-19T11:06:02;4.50;;;1.20;;
3359;SDS011;1693;49.602;11.046;2023-09-19T11:08:53;2.22;;;1.50;;
3359;SDS011;1693;49.602;11.046;2023-09-19T11:14:28;2.40;;;1.53;;
3359;SDS011;1693;49.602;11.046;2023-09-19T11:28:27;3.73;;;1.20;;
3359;SDS011;1693;49.602;11.046;2023-09-19T11:30:57;1.33;;;1.10;;
3359;SDS011;1693;49.602;11.046;2023-09-19T11:33:25;3.00;;;1.30;;
3359;SDS011;1693;49.602;11.046;2023-09-19T11:35:59;1.90;;;1.10;;
3359;SDS011;1693;49.602;11.046;2023-09-19T11:41:39;2.33;;;1.10;;
3359;SDS011;1693;49.602;11.046;2023-09-19T11:47:03;3.90;;;1.13;;
3359;SDS011;1693;49.602;11.046;2023-09-19T11:49:32;2.17;;;1.20;;
3359;SDS011;1693;49.602;11.046;2023-09-19T11:52:02;1.90;;;1.03;;
3359;SDS011;1693;49.602;11.046;2023-09-19T11:54:33;2.03;;;1.30;;
3359;SDS011;1693;49.602;11.046;2023-09-19T11:57:05;1.90;;;1.47;;
3359;SDS011;1693;49.602;11.046;2023-09-19T11:59:34;2.57;;;1.10;;
3359;SDS011;1693;49.602;11.046;2023-09-19T12:02:06;4.43;;;1.50;;
3359;SDS011;1693;49.602;11.046;2023-09-19T12:04:36;1.93;;;1.17;;
3359;SDS011;1693;49.602;11.046;2023-09-19T12:07:05;1.97;;;1.00;;
3359;SDS011;1693;49.602;11.046;2023-09-19T12:09:38;11.57;;;2.40;;
3359;SDS011;1693;49.602;11.046;2023-09-19T12:12:09;2.57;;;1.10;;
3359;SDS011;1693;49.602;11.046;2023-09-19T12:14:38;2.93;;;1.30;;
3359;SDS011;1693;49.602;11.046;2023-09-19T12:17:11;3.70;;;1.60;;
3359;SDS011;1693;49.602;11.046;2023-09-19T12:19:39;1.73;;;1.05;;
3359;SDS011;1693;49.602;11.046;2023-09-19T12:22:15;1.83;;;1.20;;
3359;SDS011;1693;49.602;11.046;2023-09-19T12:24:44;1.80;;;1.10;;
3359;SDS011;1693;49.602;11.046;2023-09-19T12:27:11;2.40;;;1.00;;
3359;SDS011;1693;49.602;11.046;2023-09-19T12:29:42;2.93;;;2.20;;
3359;SDS011;1693;49.602;11.046;2023-09-19T12:32:12;2.67;;;1.13;;
3359;SDS011;1693;49.602;11.046;2023-09-19T12:34:42;2.07;;;1.37;;
3359;SDS011;1693;49.602;11.046;2023-09-19T12:37:17;3.78;;;1.17;;
3359;SDS011;1693;49.602;11.046;2023-09-19T12:39:48;4.73;;;1.60;;
3359;SDS011;1693;49.602;11.046;2023-09-19T12:42:16;2.90;;;1.70;;
3359;SDS011;1693;49.602;11.046;2023-09-19T12:44:45;2.47;;;0.97;;
3359;SDS011;1693;49.602;11.046;2023-09-19T12:47:18;4.10;;;1.10;;
3359;SDS011;1693;49.602;11.046;2023-09-19T12:50:07;2.60;;;1.20;;
3359;SDS011;1693;49.602;11.046;2023-09-19T12:52:38;1.90;;;1.27;;
3359;SDS011;1693;49.602;11.046;2023-09-19T12:55:07;1.93;;;1.30;;
3359;SDS011;1693;49.602;11.046;2023-09-19T12:57:36;2.37;;;1.20;;
3359;SDS011;1693;49.602;11.046;2023-09-19T13:00:04;3.20;;;1.67;;
3359;SDS011;1693;49.602;11.046;2023-09-19T13:02:37;3.40;;;1.77;;
3359;SDS011;1693;49.602;11.046;2023-09-19T13:05:05;2.57;;;1.37;;
3359;SDS011;1693;49.602;11.046;2023-09-19T13:07:41;6.00;;;1.57;;
3359;SDS011;1693;49.602;11.046;2023-09-19T13:10:12;1.97;;;1.10;;
3359;SDS011;1693;49.602;11.046;2023-09-19T13:12:42;1.70;;;1.20;;
3359;SDS011;1693;49.602;11.046;2023-09-19T13:15:13;4.80;;;1.17;;
3359;SDS011;1693;49.602;11.046;2023-09-19T13:17:47;2.47;;;1.70;;
3359;SDS011;1693;49.602;11.046;2023-09-19T13:20:21;5.00;;;1.60;;
3359;SDS011;1693;49.602;11.046;2023-09-19T13:22:52;2.00;;;1.53;;
3359;SDS011;1693;49.602;11.046;2023-09-19T13:25:25;5.40;;;1.20;;
3359;SDS011;1693;49.602;11.046;2023-09-19T13:27:54;3.80;;;1.63;;
3359;SDS011;1693;49.602;11.046;2023-09-19T13:30:22;1.80;;;1.50;;
3359;SDS011;1693;49.602;11.046;2023-09-19T13:32:52;4.10;;;1.50;;
3359;SDS011;1693;49.602;11.046;2023-09-19T13:35:30;1.70;;;1.20;;
3359;SDS011;1693;49.602;11.046;2023-09-19T13:37:57;3.70;;;1.53;;
3359;SDS011;1693;49.602;11.046;2023-09-19T13:40:26;1.67;;;1.50;;
3359;SDS011;1693;49.602;11.046;2023-09-19T13:42:56;5.00;;;1.80;;
3359;SDS011;1693;49.602;11.046;2023-09-19T13:45:22;2.10;;;1.43;;
3359;SDS011;1693;49.602;11.046;2023-09-19T13:47:56;2.47;;;1.50;;
3359;SDS011;1693;49.602;11.046;2023-09-19T13:50:25;2.10;;;1.07;;
3359;SDS011;1693;49.602;11.046;2023-09-19T13:52:57;2.70;;;1.03;;
3359;SDS011;1693;49.602;11.046;2023-09-19T13:55:25;6.27;;;1.87;;
3359;SDS011;1693;49.602;11.046;2023-09-19T13:57:52;4.07;;;1.43;;
3359;SDS011;1693;49.602;11.046;2023-09-19T14:00:21;5.37;;;1.60;;
3359;SDS011;1693;49.602;11.046;2023-09-19T14:02:49;2.43;;;1.10;;
3359;SDS011;1693;49.602;11.046;2023-09-19T14:05:18;2.43;;;1.37;;
3359;SDS011;1693;49.602;11.046;2023-09-19T14:07:54;12.43;;;2.30;;
3359;SDS011;1693;49.602;11.046;2023-09-19T14:10:24;4.80;;;1.40;;
3359;SDS011;1693;49.602;11.046;2023-09-19T14:12:52;3.90;;;1.60;;
3359;SDS011;1693;49.602;11.046;2023-09-19T14:15:19;3.30;;;1.50;;
3359;SDS011;1693;49.602;11.046;2023-09-19T14:17:54;1.80;;;1.30;;
3359;SDS011;1693;49.602;11.046;2023-09-19T14:20:24;2.93;;;1.73;;
3359;SDS011;1693;49.602;11.046;2023-09-19T14:22:57;2.80;;;1.60;;
3359;SDS011;1693;49.602;11.046;2023-09-19T14:25:25;1.80;;;1.60;;
3359;SDS011;1693;49.602;11.046;2023-09-19T14:27:54;3.40;;;1.30;;
3359;SDS011;1693;49.602;11.046;2023-09-19T14:30:21;3.93;;;1.40;;
3359;SDS011;1693;49.602;11.046;2023-09-19T14:32:48;3.33;;;1.00;;
3359;SDS011;1693;49.602;11.046;2023-09-19T14:35:16;8.60;;;1.67;;
3359;SDS011;1693;49.602;11.046;2023-09-19T14:37:44;2.33;;;0.90;;
3359;SDS011;1693;49.602;11.046;2023-09-19T14:40:12;2.13;;;1.30;;
3359;SDS011;1693;49.602;11.046;2023-09-19T14:42:43;2.60;;;1.33;;
3359;SDS011;1693;49.602;11.046;2023-09-19T14:45:10;3.73;;;1.27;;
3359;SDS011;1693;49.602;11.046;2023-09-19T14:47:41;5.20;;;1.10;;
3359;SDS011;1693;49.602;11.046;2023-09-19T14:50:08;3.60;;;1.37;;
3359;SDS011;1693;49.602;11.046;2023-09-19T14:52:37;3.97;;;1.40;;
3359;SDS011;1693;49.602;11.046;2023-09-19T14:55:07;3.43;;;1.30;;
3359;SDS011;1693;49.602;11.046;2023-09-19T14:57:39;1.77;;;1.10;;
3359;SDS011;1693;49.602;11.046;2023-09-19T15:00:09;1.63;;;1.17;;
3359;SDS011;1693;49.602;11.046;2023-09-19T15:02:37;2.73;;;1.40;;
3359;SDS011;1693;49.602;11.046;2023-09-19T15:05:06;1.67;;;1.10;;
3359;SDS011;1693;49.602;11.046;2023-09-19T15:07:35;2.53;;;1.40;;
3359;SDS011;1693;49.602;11.046;2023-09-19T15:10:03;1.60;;;0.90;;
3359;SDS011;1693;49.602;11.046;2023-09-19T15:12:36;1.70;;;1.10;;
3359;SDS011;1693;49.602;11.046;2023-09-19T15:15:06;2.43;;;1.60;;
3359;SDS011;1693;49.602;11.046;2023-09-19T15:17:34;2.30;;;1.23;;
3359;SDS011;1693;49.602;11.046;2023-09-19T15:20:03;2.75;;;1.30;;
3359;SDS011;1693;49.602;11.046;2023-09-19T15:22:32;3.05;;;1.42;;
3359;SDS011;1693;49.602;11.046;2023-09-19T15:25:00;4.90;;;1.07;;
3359;SDS011;1693;49.602;11.046;2023-09-19T15:27:29;3.53;;;1.00;;
3359;SDS011;1693;49.602;11.046;2023-09-19T15:30:00;1.40;;;1.10;;
3359;SDS011;1693;49.602;11.046;2023-09-19T15:32:29;1.60;;;1.20;;
3359;SDS011;1693;49.602;11.046;2023-09-19T15:34:56;4.93;;;1.43;;
3359;SDS011;1693;49.602;11.046;2023-09-19T15:37:23;7.10;;;1.33;;
3359;SDS011;1693;49.602;11.046;2023-09-19T15:39:53;2.03;;;1.20;;
3359;SDS011;1693;49.602;11.046;2023-09-19T15:42:20;4.93;;;1.60;;
3359;SDS011;1693;49.602;11.046;2023-09-19T15:44:48;2.90;;;1.30;;
3359;SDS011;1693;49.602;11.046;2023-09-19T15:47:17;2.30;;;1.20;;